Portada
METAR-TAF:

METAR-TAF

Aeropuertos :

Aeropuerto Internacional de Shenzhen-Bao'an

Shenzhen, China

latitud: 22-33N, longitud: 114-06E, altitud: 18 m

Observación

El informe se hizo hace 1 hora y 3 minutos, a las 10:00 UTC
Viento 10 kt del sur
Temperatura 20°C
Humedad 78%
Presión 1021 hPa
Visibilidad 10 km o más
sin nubes por debajo de 1500 m y sin presencia de cumulonimbus.

METAR: ZGSZ 231000Z 17005MPS CAVOK 20/16 Q1021 NOSIG

Hora: 19:03 (11:03 UTC)

Pronóstico

El informe se hizo hace 7 horas y 47 minutos, a las 03:16 UTC
Pronóstico válido del 23 a las 06 UTC al 24 a las 06 UTC
Viento 8 kt del sur-suroeste
Visibilidad: 8000 m
Escasas nubes a una altura de 4000 ft
Evolucionando progresivamente
del 23 a las 10 UTC al 23 a las 12 UTC
Viento 8 kt del este-sureste

TAF: ZGSZ 230316Z 2306/2406 21004MPS 8000 FEW040 TX26/2306Z TN17/2322Z BECMG 2310/2312 12004MPS

Observaciones y pronósticos meteorológicos de más de 4000 aeropuertos (mensajes METAR y TAF).

Los puntos amarillos y rojos representan las estaciones disponibles.

Ponga el ratón en el punto deseado para ver el nombre de la estación.

Haga clic para ver las observaciones y los pronósticos meteorológicos.

Para cambiar el mapa : haga clic en los botones verdes con una cruz de color negro para hacer un zoom, en el botón verde con un guión para alejar o en las flechas verdes para mapas adyacentes.


METAR-TAF: